sensor_id;sensor_type;location;lat;lon;timestamp;P1;durP1;ratioP1;P2;durP2;ratioP2
43184;SDS011;28803;52.308;19.096;2022-09-02T00:00:55;1.15;;;0.50;;
43184;SDS011;28803;52.308;19.096;2022-09-02T00:03:27;2.40;;;0.70;;
43184;SDS011;28803;52.308;19.096;2022-09-02T00:05:56;5.93;;;0.57;;
43184;SDS011;28803;52.308;19.096;2022-09-02T00:08:24;2.72;;;0.75;;
43184;SDS011;28803;52.308;19.096;2022-09-02T00:10:51;0.60;;;0.50;;
43184;SDS011;28803;52.308;19.096;2022-09-02T00:13:19;1.08;;;0.55;;
43184;SDS011;28803;52.308;19.096;2022-09-02T00:15:47;2.33;;;0.63;;
43184;SDS011;28803;52.308;19.096;2022-09-02T00:18:15;1.25;;;0.40;;
43184;SDS011;28803;52.308;19.096;2022-09-02T00:20:44;1.60;;;0.60;;
43184;SDS011;28803;52.308;19.096;2022-09-02T00:23:14;0.85;;;0.50;;
43184;SDS011;28803;52.308;19.096;2022-09-02T00:25:42;2.08;;;0.75;;
43184;SDS011;28803;52.308;19.096;2022-09-02T00:28:11;2.13;;;0.50;;
43184;SDS011;28803;52.308;19.096;2022-09-02T00:30:41;4.10;;;0.70;;
43184;SDS011;28803;52.308;19.096;2022-09-02T00:33:09;3.35;;;0.60;;
43184;SDS011;28803;52.308;19.096;2022-09-02T00:35:37;0.90;;;0.70;;
43184;SDS011;28803;52.308;19.096;2022-09-02T00:38:05;3.83;;;0.70;;
43184;SDS011;28803;52.308;19.096;2022-09-02T00:40:33;2.78;;;0.80;;
43184;SDS011;28803;52.308;19.096;2022-09-02T00:43:04;1.42;;;0.70;;
43184;SDS011;28803;52.308;19.096;2022-09-02T00:45:33;2.70;;;0.50;;
43184;SDS011;28803;52.308;19.096;2022-09-02T00:48:03;1.95;;;0.90;;
43184;SDS011;28803;52.308;19.096;2022-09-02T00:50:32;1.70;;;0.90;;
43184;SDS011;28803;52.308;19.096;2022-09-02T00:53:05;2.45;;;0.40;;
43184;SDS011;28803;52.308;19.096;2022-09-02T00:55:42;1.15;;;0.63;;
43184;SDS011;28803;52.308;19.096;2022-09-02T00:58:22;1.02;;;0.50;;
43184;SDS011;28803;52.308;19.096;2022-09-02T01:00:56;1.00;;;0.57;;
43184;SDS011;28803;52.308;19.096;2022-09-02T01:03:26;1.27;;;0.70;;
43184;SDS011;28803;52.308;19.096;2022-09-02T01:05:56;1.40;;;0.77;;
43184;SDS011;28803;52.308;19.096;2022-09-02T01:08:27;2.67;;;0.90;;
43184;SDS011;28803;52.308;19.096;2022-09-02T01:11:00;1.58;;;1.17;;
43184;SDS011;28803;52.308;19.096;2022-09-02T01:13:34;2.37;;;0.80;;
43184;SDS011;28803;52.308;19.096;2022-09-02T01:16:10;1.20;;;0.60;;
43184;SDS011;28803;52.308;19.096;2022-09-02T01:18:37;0.95;;;0.45;;
43184;SDS011;28803;52.308;19.096;2022-09-02T01:21:05;1.92;;;0.77;;
43184;SDS011;28803;52.308;19.096;2022-09-02T01:23:32;1.00;;;0.40;;
43184;SDS011;28803;52.308;19.096;2022-09-02T01:26:02;0.75;;;0.60;;
43184;SDS011;28803;52.308;19.096;2022-09-02T01:28:30;0.93;;;0.50;;
43184;SDS011;28803;52.308;19.096;2022-09-02T01:30:59;1.10;;;0.55;;
43184;SDS011;28803;52.308;19.096;2022-09-02T01:33:27;1.27;;;0.85;;
43184;SDS011;28803;52.308;19.096;2022-09-02T01:35:56;3.05;;;0.60;;
43184;SDS011;28803;52.308;19.096;2022-09-02T01:38:24;1.27;;;0.43;;
43184;SDS011;28803;52.308;19.096;2022-09-02T01:40:52;0.57;;;0.35;;
43184;SDS011;28803;52.308;19.096;2022-09-02T01:43:24;1.23;;;0.68;;
43184;SDS011;28803;52.308;19.096;2022-09-02T01:45:53;2.58;;;0.50;;
43184;SDS011;28803;52.308;19.096;2022-09-02T01:48:22;2.45;;;0.77;;
43184;SDS011;28803;52.308;19.096;2022-09-02T01:50:50;1.30;;;0.88;;
43184;SDS011;28803;52.308;19.096;2022-09-02T01:53:20;1.13;;;0.70;;
43184;SDS011;28803;52.308;19.096;2022-09-02T01:55:47;1.42;;;0.60;;
43184;SDS011;28803;52.308;19.096;2022-09-02T01:58:14;0.98;;;0.65;;
43184;SDS011;28803;52.308;19.096;2022-09-02T02:00:41;1.75;;;0.63;;
43184;SDS011;28803;52.308;19.096;2022-09-02T02:03:09;0.63;;;0.30;;
43184;SDS011;28803;52.308;19.096;2022-09-02T02:05:36;1.23;;;0.60;;
43184;SDS011;28803;52.308;19.096;2022-09-02T02:08:04;1.33;;;0.70;;
43184;SDS011;28803;52.308;19.096;2022-09-02T02:10:32;0.77;;;0.47;;
43184;SDS011;28803;52.308;19.096;2022-09-02T02:12:59;2.28;;;0.60;;
43184;SDS011;28803;52.308;19.096;2022-09-02T02:15:27;2.47;;;0.98;;
43184;SDS011;28803;52.308;19.096;2022-09-02T02:17:53;0.80;;;0.40;;
43184;SDS011;28803;52.308;19.096;2022-09-02T02:20:20;1.33;;;0.50;;
43184;SDS011;28803;52.308;19.096;2022-09-02T02:22:47;1.23;;;0.65;;
43184;SDS011;28803;52.308;19.096;2022-09-02T02:25:15;0.60;;;0.40;;
43184;SDS011;28803;52.308;19.096;2022-09-02T02:27:44;1.65;;;0.68;;
43184;SDS011;28803;52.308;19.096;2022-09-02T02:30:12;1.10;;;0.70;;
43184;SDS011;28803;52.308;19.096;2022-09-02T02:32:40;2.38;;;0.73;;
43184;SDS011;28803;52.308;19.096;2022-09-02T02:35:08;0.80;;;0.50;;
43184;SDS011;28803;52.308;19.096;2022-09-02T02:37:36;1.40;;;0.77;;
43184;SDS011;28803;52.308;19.096;2022-09-02T02:40:04;1.73;;;0.73;;
43184;SDS011;28803;52.308;19.096;2022-09-02T02:42:33;1.65;;;1.20;;
43184;SDS011;28803;52.308;19.096;2022-09-02T02:45:01;1.42;;;0.70;;
43184;SDS011;28803;52.308;19.096;2022-09-02T02:47:29;1.20;;;0.70;;
43184;SDS011;28803;52.308;19.096;2022-09-02T02:49:56;1.60;;;1.02;;
43184;SDS011;28803;52.308;19.096;2022-09-02T02:52:23;2.67;;;0.95;;
43184;SDS011;28803;52.308;19.096;2022-09-02T02:54:50;1.48;;;0.93;;
43184;SDS011;28803;52.308;19.096;2022-09-02T02:57:18;2.28;;;1.00;;
43184;SDS011;28803;52.308;19.096;2022-09-02T02:59:45;1.63;;;0.90;;
43184;SDS011;28803;52.308;19.096;2022-09-02T03:02:12;1.90;;;0.70;;
43184;SDS011;28803;52.308;19.096;2022-09-02T03:04:39;1.90;;;0.65;;
43184;SDS011;28803;52.308;19.096;2022-09-02T03:07:06;1.67;;;0.88;;
43184;SDS011;28803;52.308;19.096;2022-09-02T03:09:34;0.88;;;0.50;;
43184;SDS011;28803;52.308;19.096;2022-09-02T03:12:02;1.70;;;0.88;;
43184;SDS011;28803;52.308;19.096;2022-09-02T03:14:29;1.42;;;0.55;;
43184;SDS011;28803;52.308;19.096;2022-09-02T03:16:57;1.65;;;0.95;;
43184;SDS011;28803;52.308;19.096;2022-09-02T03:19:24;2.42;;;1.52;;
43184;SDS011;28803;52.308;19.096;2022-09-02T03:21:51;1.92;;;0.95;;
43184;SDS011;28803;52.308;19.096;2022-09-02T03:24:18;1.92;;;0.95;;
43184;SDS011;28803;52.308;19.096;2022-09-02T03:26:46;1.70;;;0.80;;
43184;SDS011;28803;52.308;19.096;2022-09-02T03:29:13;0.95;;;0.65;;
43184;SDS011;28803;52.308;19.096;2022-09-02T03:31:40;1.38;;;0.77;;
43184;SDS011;28803;52.308;19.096;2022-09-02T03:34:08;1.98;;;1.25;;
43184;SDS011;28803;52.308;19.096;2022-09-02T03:36:38;1.65;;;0.88;;
43184;SDS011;28803;52.308;19.096;2022-09-02T03:39:07;1.92;;;1.00;;
43184;SDS011;28803;52.308;19.096;2022-09-02T03:41:36;4.25;;;1.20;;
43184;SDS011;28803;52.308;19.096;2022-09-02T03:44:07;2.15;;;1.13;;
43184;SDS011;28803;52.308;19.096;2022-09-02T03:46:35;2.10;;;1.10;;
43184;SDS011;28803;52.308;19.096;2022-09-02T03:49:03;2.08;;;0.95;;
43184;SDS011;28803;52.308;19.096;2022-09-02T03:51:30;1.95;;;1.10;;
43184;SDS011;28803;52.308;19.096;2022-09-02T03:53:58;1.27;;;0.90;;
43184;SDS011;28803;52.308;19.096;2022-09-02T03:56:25;3.25;;;1.20;;
43184;SDS011;28803;52.308;19.096;2022-09-02T03:58:52;1.70;;;1.30;;
43184;SDS011;28803;52.308;19.096;2022-09-02T04:01:22;2.03;;;1.00;;
43184;SDS011;28803;52.308;19.096;2022-09-02T04:03:53;1.63;;;1.07;;
43184;SDS011;28803;52.308;19.096;2022-09-02T04:06:22;1.83;;;1.02;;
43184;SDS011;28803;52.308;19.096;2022-09-02T04:08:58;2.92;;;1.30;;
43184;SDS011;28803;52.308;19.096;2022-09-02T04:11:27;2.03;;;1.10;;
43184;SDS011;28803;52.308;19.096;2022-09-02T04:13:54;2.10;;;1.10;;
43184;SDS011;28803;52.308;19.096;2022-09-02T04:16:23;1.83;;;1.02;;
43184;SDS011;28803;52.308;19.096;2022-09-02T04:18:56;1.42;;;0.95;;
43184;SDS011;28803;52.308;19.096;2022-09-02T04:21:25;1.70;;;1.08;;
43184;SDS011;28803;52.308;19.096;2022-09-02T04:23:52;1.98;;;0.95;;
43184;SDS011;28803;52.308;19.096;2022-09-02T04:26:20;2.08;;;1.10;;
43184;SDS011;28803;52.308;19.096;2022-09-02T04:28:49;2.60;;;0.85;;
43184;SDS011;28803;52.308;19.096;2022-09-02T04:31:17;1.90;;;1.30;;
43184;SDS011;28803;52.308;19.096;2022-09-02T04:33:47;1.15;;;0.90;;
43184;SDS011;28803;52.308;19.096;2022-09-02T04:36:15;2.38;;;1.08;;
43184;SDS011;28803;52.308;19.096;2022-09-02T04:38:45;1.73;;;1.00;;
43184;SDS011;28803;52.308;19.096;2022-09-02T04:41:15;1.15;;;0.73;;
43184;SDS011;28803;52.308;19.096;2022-09-02T04:43:48;2.92;;;1.00;;
43184;SDS011;28803;52.308;19.096;2022-09-02T04:46:17;1.33;;;0.70;;
43184;SDS011;28803;52.308;19.096;2022-09-02T04:48:55;1.83;;;1.23;;
43184;SDS011;28803;52.308;19.096;2022-09-02T04:51:24;1.40;;;0.90;;
43184;SDS011;28803;52.308;19.096;2022-09-02T04:53:52;2.95;;;1.25;;
43184;SDS011;28803;52.308;19.096;2022-09-02T04:56:22;2.70;;;1.50;;
43184;SDS011;28803;52.308;19.096;2022-09-02T04:58:51;1.40;;;0.80;;
43184;SDS011;28803;52.308;19.096;2022-09-02T05:01:30;1.55;;;1.08;;
43184;SDS011;28803;52.308;19.096;2022-09-02T05:04:05;2.70;;;1.13;;
43184;SDS011;28803;52.308;19.096;2022-09-02T05:06:35;1.48;;;0.93;;
43184;SDS011;28803;52.308;19.096;2022-09-02T05:09:09;1.60;;;0.90;;
43184;SDS011;28803;52.308;19.096;2022-09-02T05:11:38;1.55;;;0.88;;
43184;SDS011;28803;52.308;19.096;2022-09-02T05:14:06;1.77;;;1.27;;
43184;SDS011;28803;52.308;19.096;2022-09-02T05:16:35;3.20;;;1.10;;
43184;SDS011;28803;52.308;19.096;2022-09-02T05:19:05;1.05;;;0.75;;
43184;SDS011;28803;52.308;19.096;2022-09-02T05:21:39;2.45;;;1.20;;
43184;SDS011;28803;52.308;19.096;2022-09-02T05:24:09;3.58;;;1.98;;
43184;SDS011;28803;52.308;19.096;2022-09-02T05:26:37;2.13;;;1.13;;
43184;SDS011;28803;52.308;19.096;2022-09-02T05:29:06;1.70;;;0.90;;
43184;SDS011;28803;52.308;19.096;2022-09-02T05:31:34;3.03;;;1.20;;
43184;SDS011;28803;52.308;19.096;2022-09-02T05:34:02;2.88;;;1.15;;
43184;SDS011;28803;52.308;19.096;2022-09-02T05:36:30;1.88;;;1.17;;
43184;SDS011;28803;52.308;19.096;2022-09-02T05:38:59;3.00;;;1.50;;
43184;SDS011;28803;52.308;19.096;2022-09-02T05:41:28;1.95;;;0.90;;
43184;SDS011;28803;52.308;19.096;2022-09-02T05:43:56;1.80;;;1.10;;
43184;SDS011;28803;52.308;19.096;2022-09-02T05:46:29;3.08;;;1.02;;
43184;SDS011;28803;52.308;19.096;2022-09-02T05:48:58;2.88;;;1.50;;
43184;SDS011;28803;52.308;19.096;2022-09-02T05:51:36;1.38;;;0.85;;
43184;SDS011;28803;52.308;19.096;2022-09-02T05:54:17;2.15;;;1.33;;
43184;SDS011;28803;52.308;19.096;2022-09-02T05:56:49;1.30;;;0.88;;
43184;SDS011;28803;52.308;19.096;2022-09-02T05:59:18;0.85;;;0.60;;
43184;SDS011;28803;52.308;19.096;2022-09-02T06:01:49;1.35;;;0.60;;
43184;SDS011;28803;52.308;19.096;2022-09-02T06:04:18;0.95;;;0.50;;
43184;SDS011;28803;52.308;19.096;2022-09-02T06:06:48;0.90;;;0.52;;
43184;SDS011;28803;52.308;19.096;2022-09-02T06:09:17;1.77;;;0.40;;
43184;SDS011;28803;52.308;19.096;2022-09-02T06:11:48;1.33;;;0.80;;
43184;SDS011;28803;52.308;19.096;2022-09-02T06:14:16;0.75;;;0.50;;
43184;SDS011;28803;52.308;19.096;2022-09-02T06:16:48;0.85;;;0.52;;
43184;SDS011;28803;52.308;19.096;2022-09-02T06:19:21;0.77;;;0.47;;
43184;SDS011;28803;52.308;19.096;2022-09-02T06:21:52;1.17;;;0.43;;
43184;SDS011;28803;52.308;19.096;2022-09-02T06:24:20;1.08;;;0.80;;
43184;SDS011;28803;52.308;19.096;2022-09-02T06:26:48;1.08;;;0.28;;
43184;SDS011;28803;52.308;19.096;2022-09-02T06:29:22;1.35;;;0.10;;
43184;SDS011;28803;52.308;19.096;2022-09-02T06:31:51;1.13;;;0.20;;
43184;SDS011;28803;52.308;19.096;2022-09-02T06:34:21;2.72;;;0.30;;
43184;SDS011;28803;52.308;19.096;2022-09-02T06:36:51;3.05;;;0.60;;
43184;SDS011;28803;52.308;19.096;2022-09-02T06:39:20;1.08;;;0.22;;
43184;SDS011;28803;52.308;19.096;2022-09-02T06:41:49;1.00;;;0.55;;
43184;SDS011;28803;52.308;19.096;2022-09-02T06:44:17;0.50;;;0.28;;
43184;SDS011;28803;52.308;19.096;2022-09-02T06:46:51;0.95;;;0.20;;
43184;SDS011;28803;52.308;19.096;2022-09-02T06:49:23;0.70;;;0.22;;
43184;SDS011;28803;52.308;19.096;2022-09-02T06:51:52;0.77;;;0.30;;
43184;SDS011;28803;52.308;19.096;2022-09-02T06:54:21;1.20;;;0.30;;
43184;SDS011;28803;52.308;19.096;2022-09-02T06:56:50;0.22;;;0.15;;
43184;SDS011;28803;52.308;19.096;2022-09-02T06:59:19;0.50;;;0.20;;
43184;SDS011;28803;52.308;19.096;2022-09-02T07:01:47;1.55;;;0.17;;
43184;SDS011;28803;52.308;19.096;2022-09-02T07:04:17;0.70;;;0.20;;
43184;SDS011;28803;52.308;19.096;2022-09-02T07:07:04;1.00;;;0.80;;
43184;SDS011;28803;52.308;19.096;2022-09-02T07:09:34;1.15;;;0.30;;
43184;SDS011;28803;52.308;19.096;2022-09-02T07:12:02;0.65;;;0.10;;
43184;SDS011;28803;52.308;19.096;2022-09-02T07:14:35;0.45;;;0.10;;
43184;SDS011;28803;52.308;19.096;2022-09-02T07:17:04;0.82;;;0.20;;
43184;SDS011;28803;52.308;19.096;2022-09-02T07:19:32;1.55;;;0.20;;
43184;SDS011;28803;52.308;19.096;2022-09-02T07:22:02;1.38;;;0.20;;
43184;SDS011;28803;52.308;19.096;2022-09-02T07:24:33;0.65;;;0.10;;
43184;SDS011;28803;52.308;19.096;2022-09-02T07:27:02;0.13;;;0.00;;
43184;SDS011;28803;52.308;19.096;2022-09-02T07:29:30;0.30;;;0.30;;
43184;SDS011;28803;52.308;19.096;2022-09-02T07:31:58;0.13;;;0.10;;
43184;SDS011;28803;52.308;19.096;2022-09-02T07:34:26;2.13;;;0.20;;
43184;SDS011;28803;52.308;19.096;2022-09-02T07:36:55;0.40;;;0.10;;
43184;SDS011;28803;52.308;19.096;2022-09-02T07:39:30;0.20;;;0.10;;
43184;SDS011;28803;52.308;19.096;2022-09-02T07:41:58;0.25;;;0.10;;
43184;SDS011;28803;52.308;19.096;2022-09-02T07:44:26;0.68;;;0.10;;
43184;SDS011;28803;52.308;19.096;2022-09-02T07:46:54;0.75;;;0.45;;
43184;SDS011;28803;52.308;19.096;2022-09-02T07:49:21;0.20;;;0.10;;
43184;SDS011;28803;52.308;19.096;2022-09-02T07:51:49;0.28;;;0.17;;
43184;SDS011;28803;52.308;19.096;2022-09-02T07:54:20;0.20;;;0.10;;
43184;SDS011;28803;52.308;19.096;2022-09-02T07:56:49;0.17;;;0.10;;
43184;SDS011;28803;52.308;19.096;2022-09-02T07:59:17;0.30;;;0.00;;
43184;SDS011;28803;52.308;19.096;2022-09-02T08:01:48;0.10;;;0.10;;
43184;SDS011;28803;52.308;19.096;2022-09-02T08:04:18;0.65;;;0.57;;
43184;SDS011;28803;52.308;19.096;2022-09-02T08:06:49;0.20;;;0.10;;
43184;SDS011;28803;52.308;19.096;2022-09-02T08:09:20;0.00;;;0.00;;
43184;SDS011;28803;52.308;19.096;2022-09-02T08:11:48;0.10;;;0.00;;
43184;SDS011;28803;52.308;19.096;2022-09-02T08:14:21;0.60;;;0.20;;
43184;SDS011;28803;52.308;19.096;2022-09-02T08:16:52;0.52;;;0.10;;
43184;SDS011;28803;52.308;19.096;2022-09-02T08:19:22;0.17;;;0.10;;
43184;SDS011;28803;52.308;19.096;2022-09-02T08:21:50;0.55;;;0.10;;
43184;SDS011;28803;52.308;19.096;2022-09-02T08:24:18;0.00;;;0.00;;
43184;SDS011;28803;52.308;19.096;2022-09-02T08:26:47;0.20;;;0.10;;
43184;SDS011;28803;52.308;19.096;2022-09-02T08:29:14;1.13;;;0.55;;
43184;SDS011;28803;52.308;19.096;2022-09-02T08:31:45;0.30;;;0.10;;
43184;SDS011;28803;52.308;19.096;2022-09-02T08:34:16;0.20;;;0.00;;
43184;SDS011;28803;52.308;19.096;2022-09-02T08:36:44;0.63;;;0.10;;
43184;SDS011;28803;52.308;19.096;2022-09-02T08:39:23;0.73;;;0.13;;
43184;SDS011;28803;52.308;19.096;2022-09-02T08:42:07;0.65;;;0.10;;
43184;SDS011;28803;52.308;19.096;2022-09-02T08:44:48;0.28;;;0.10;;
43184;SDS011;28803;52.308;19.096;2022-09-02T08:47:22;0.20;;;0.00;;
43184;SDS011;28803;52.308;19.096;2022-09-02T08:49:56;0.95;;;0.80;;
43184;SDS011;28803;52.308;19.096;2022-09-02T08:52:38;0.38;;;0.10;;
43184;SDS011;28803;52.308;19.096;2022-09-02T08:55:09;0.05;;;0.00;;
43184;SDS011;28803;52.308;19.096;2022-09-02T08:57:44;0.13;;;0.13;;
43184;SDS011;28803;52.308;19.096;2022-09-02T09:00:13;1.23;;;0.30;;
43184;SDS011;28803;52.308;19.096;2022-09-02T09:14:11;0.57;;;0.20;;
43184;SDS011;28803;52.308;19.096;2022-09-02T09:16:55;0.20;;;0.08;;
43184;SDS011;28803;52.308;19.096;2022-09-02T09:22:03;0.22;;;0.10;;
43184;SDS011;28803;52.308;19.096;2022-09-02T09:24:38;0.20;;;0.10;;
43184;SDS011;28803;52.308;19.096;2022-09-02T09:27:13;0.03;;;0.00;;
43184;SDS011;28803;52.308;19.096;2022-09-02T09:29:43;0.28;;;0.00;;
43184;SDS011;28803;52.308;19.096;2022-09-02T09:34:54;0.20;;;0.10;;
43184;SDS011;28803;52.308;19.096;2022-09-02T09:37:26;0.20;;;0.10;;
43184;SDS011;28803;52.308;19.096;2022-09-02T09:42:52;0.03;;;0.00;;
43184;SDS011;28803;52.308;19.096;2022-09-02T09:48:15;0.35;;;0.00;;
43184;SDS011;28803;52.308;19.096;2022-09-02T09:50:45;0.20;;;0.05;;
43184;SDS011;28803;52.308;19.096;2022-09-02T09:58:43;0.20;;;0.10;;
43184;SDS011;28803;52.308;19.096;2022-09-02T10:03:47;0.13;;;0.00;;
43184;SDS011;28803;52.308;19.096;2022-09-02T10:06:55;0.28;;;0.00;;
43184;SDS011;28803;52.308;19.096;2022-09-02T10:09:34;0.00;;;0.00;;
43184;SDS011;28803;52.308;19.096;2022-09-02T10:12:10;0.10;;;0.05;;
43184;SDS011;28803;52.308;19.096;2022-09-02T10:14:43;0.43;;;0.08;;
43184;SDS011;28803;52.308;19.096;2022-09-02T10:20:04;0.30;;;0.20;;
43184;SDS011;28803;52.308;19.096;2022-09-02T10:25:43;0.25;;;0.10;;
43184;SDS011;28803;52.308;19.096;2022-09-02T10:28:50;1.15;;;0.08;;
43184;SDS011;28803;52.308;19.096;2022-09-02T10:51:04;0.20;;;0.10;;
43184;SDS011;28803;52.308;19.096;2022-09-02T10:59:30;0.32;;;0.00;;
43184;SDS011;28803;52.308;19.096;2022-09-02T11:02:37;1.65;;;0.20;;
43184;SDS011;28803;52.308;19.096;2022-09-02T11:05:13;0.80;;;0.10;;
43184;SDS011;28803;52.308;19.096;2022-09-02T11:07:51;0.20;;;0.03;;
43184;SDS011;28803;52.308;19.096;2022-09-02T11:10:28;0.52;;;0.10;;
43184;SDS011;28803;52.308;19.096;2022-09-02T11:13:16;0.35;;;0.10;;
43184;SDS011;28803;52.308;19.096;2022-09-02T11:15:51;0.17;;;0.10;;
43184;SDS011;28803;52.308;19.096;2022-09-02T11:18:36;0.10;;;0.00;;
43184;SDS011;28803;52.308;19.096;2022-09-02T11:30:05;0.35;;;0.00;;
43184;SDS011;28803;52.308;19.096;2022-09-02T11:35:57;0.00;;;0.00;;
43184;SDS011;28803;52.308;19.096;2022-09-02T11:38:33;0.20;;;0.10;;
43184;SDS011;28803;52.308;19.096;2022-09-02T11:44:12;0.00;;;0.00;;
43184;SDS011;28803;52.308;19.096;2022-09-02T11:55:15;1.05;;;0.03;;
43184;SDS011;28803;52.308;19.096;2022-09-02T11:57:52;0.55;;;0.10;;
43184;SDS011;28803;52.308;19.096;2022-09-02T12:00:26;0.03;;;0.00;;
43184;SDS011;28803;52.308;19.096;2022-09-02T12:06:07;0.63;;;0.05;;
43184;SDS011;28803;52.308;19.096;2022-09-02T12:11:55;0.32;;;0.00;;
43184;SDS011;28803;52.308;19.096;2022-09-02T12:16:59;0.10;;;0.00;;
43184;SDS011;28803;52.308;19.096;2022-09-02T12:19:43;0.43;;;0.10;;
43184;SDS011;28803;52.308;19.096;2022-09-02T12:24:51;0.80;;;0.10;;
43184;SDS011;28803;52.308;19.096;2022-09-02T12:27:21;0.20;;;0.10;;
43184;SDS011;28803;52.308;19.096;2022-09-02T12:29:55;0.22;;;0.05;;
43184;SDS011;28803;52.308;19.096;2022-09-02T12:33:00;0.00;;;0.00;;
43184;SDS011;28803;52.308;19.096;2022-09-02T12:40:38;0.43;;;0.10;;
43184;SDS011;28803;52.308;19.096;2022-09-02T12:43:31;0.50;;;0.00;;
43184;SDS011;28803;52.308;19.096;2022-09-02T12:49:00;0.00;;;0.00;;
43184;SDS011;28803;52.308;19.096;2022-09-02T12:51:51;0.05;;;0.00;;
43184;SDS011;28803;52.308;19.096;2022-09-02T12:54:25;0.13;;;0.00;;
43184;SDS011;28803;52.308;19.096;2022-09-02T12:56:56;0.10;;;0.00;;
43184;SDS011;28803;52.308;19.096;2022-09-02T12:59:30;0.20;;;0.00;;
43184;SDS011;28803;52.308;19.096;2022-09-02T13:04:45;0.47;;;0.20;;
43184;SDS011;28803;52.308;19.096;2022-09-02T13:10:22;0.00;;;0.00;;
43184;SDS011;28803;52.308;19.096;2022-09-02T13:33:22;0.60;;;0.22;;
43184;SDS011;28803;52.308;19.096;2022-09-02T13:35:53;1.25;;;0.20;;
43184;SDS011;28803;52.308;19.096;2022-09-02T13:38:27;4.03;;;0.93;;
43184;SDS011;28803;52.308;19.096;2022-09-02T13:40:56;0.08;;;0.00;;
43184;SDS011;28803;52.308;19.096;2022-09-02T13:43:24;0.28;;;0.10;;
43184;SDS011;28803;52.308;19.096;2022-09-02T13:45:58;0.00;;;0.00;;
43184;SDS011;28803;52.308;19.096;2022-09-02T13:48:31;0.00;;;0.00;;
43184;SDS011;28803;52.308;19.096;2022-09-02T13:51:22;0.17;;;0.00;;
43184;SDS011;28803;52.308;19.096;2022-09-02T13:53:49;0.20;;;0.10;;
43184;SDS011;28803;52.308;19.096;2022-09-02T13:56:39;0.52;;;0.43;;
43184;SDS011;28803;52.308;19.096;2022-09-02T13:59:07;0.43;;;0.10;;
43184;SDS011;28803;52.308;19.096;2022-09-02T14:01:36;0.35;;;0.10;;
43184;SDS011;28803;52.308;19.096;2022-09-02T14:04:08;1.95;;;0.13;;
43184;SDS011;28803;52.308;19.096;2022-09-02T14:06:42;1.45;;;0.00;;
43184;SDS011;28803;52.308;19.096;2022-09-02T14:09:20;0.10;;;0.07;;
43184;SDS011;28803;52.308;19.096;2022-09-02T14:11:53;0.25;;;0.25;;
43184;SDS011;28803;52.308;19.096;2022-09-02T14:14:23;0.30;;;0.10;;
43184;SDS011;28803;52.308;19.096;2022-09-02T14:16:52;0.00;;;0.00;;
43184;SDS011;28803;52.308;19.096;2022-09-02T14:19:47;0.10;;;0.00;;
43184;SDS011;28803;52.308;19.096;2022-09-02T14:22:25;0.22;;;0.10;;
43184;SDS011;28803;52.308;19.096;2022-09-02T14:24:56;0.17;;;0.00;;
43184;SDS011;28803;52.308;19.096;2022-09-02T14:27:25;0.38;;;0.10;;
43184;SDS011;28803;52.308;19.096;2022-09-02T14:29:55;0.05;;;0.00;;
43184;SDS011;28803;52.308;19.096;2022-09-02T14:32:26;0.20;;;0.10;;
43184;SDS011;28803;52.308;19.096;2022-09-02T14:37:55;0.10;;;0.00;;
43184;SDS011;28803;52.308;19.096;2022-09-02T14:40:36;0.20;;;0.10;;
43184;SDS011;28803;52.308;19.096;2022-09-02T14:43:11;0.00;;;0.00;;
43184;SDS011;28803;52.308;19.096;2022-09-02T14:45:42;0.05;;;0.05;;
43184;SDS011;28803;52.308;19.096;2022-09-02T14:48:23;0.40;;;0.00;;
43184;SDS011;28803;52.308;19.096;2022-09-02T14:51:00;0.10;;;0.10;;
43184;SDS011;28803;52.308;19.096;2022-09-02T14:53:33;0.10;;;0.00;;
43184;SDS011;28803;52.308;19.096;2022-09-02T14:56:04;0.28;;;0.10;;
43184;SDS011;28803;52.308;19.096;2022-09-02T14:58:34;0.45;;;0.00;;
43184;SDS011;28803;52.308;19.096;2022-09-02T15:01:02;0.10;;;0.00;;
43184;SDS011;28803;52.308;19.096;2022-09-02T15:03:31;0.57;;;0.28;;
43184;SDS011;28803;52.308;19.096;2022-09-02T15:06:06;0.80;;;0.10;;
43184;SDS011;28803;52.308;19.096;2022-09-02T15:08:40;0.30;;;0.00;;
43184;SDS011;28803;52.308;19.096;2022-09-02T15:11:10;0.00;;;0.00;;
43184;SDS011;28803;52.308;19.096;2022-09-02T15:13:42;0.40;;;0.00;;
43184;SDS011;28803;52.308;19.096;2022-09-02T15:16:10;0.65;;;0.10;;
43184;SDS011;28803;52.308;19.096;2022-09-02T15:18:39;0.10;;;0.00;;
43184;SDS011;28803;52.308;19.096;2022-09-02T15:21:07;0.28;;;0.10;;
43184;SDS011;28803;52.308;19.096;2022-09-02T15:23:35;0.68;;;0.10;;
43184;SDS011;28803;52.308;19.096;2022-09-02T15:26:07;0.15;;;0.10;;
43184;SDS011;28803;52.308;19.096;2022-09-02T15:28:35;0.00;;;0.00;;
43184;SDS011;28803;52.308;19.096;2022-09-02T15:31:05;0.28;;;0.10;;
43184;SDS011;28803;52.308;19.096;2022-09-02T15:33:35;0.38;;;0.10;;
43184;SDS011;28803;52.308;19.096;2022-09-02T15:36:05;0.55;;;0.00;;
43184;SDS011;28803;52.308;19.096;2022-09-02T15:38:34;0.20;;;0.10;;
43184;SDS011;28803;52.308;19.096;2022-09-02T15:43:38;0.00;;;0.00;;
43184;SDS011;28803;52.308;19.096;2022-09-02T15:46:24;0.10;;;0.10;;
43184;SDS011;28803;52.308;19.096;2022-09-02T15:48:59;0.20;;;0.10;;
43184;SDS011;28803;52.308;19.096;2022-09-02T15:51:29;0.28;;;0.28;;
43184;SDS011;28803;52.308;19.096;2022-09-02T15:54:02;0.10;;;0.00;;
43184;SDS011;28803;52.308;19.096;2022-09-02T15:56:34;0.45;;;0.10;;
43184;SDS011;28803;52.308;19.096;2022-09-02T15:59:05;0.15;;;0.10;;
43184;SDS011;28803;52.308;19.096;2022-09-02T16:01:39;0.43;;;0.00;;
43184;SDS011;28803;52.308;19.096;2022-09-02T16:04:10;0.20;;;0.00;;
43184;SDS011;28803;52.308;19.096;2022-09-02T16:06:41;0.00;;;0.00;;
43184;SDS011;28803;52.308;19.096;2022-09-02T16:09:11;0.77;;;0.00;;
43184;SDS011;28803;52.308;19.096;2022-09-02T16:11:41;0.20;;;0.00;;
43184;SDS011;28803;52.308;19.096;2022-09-02T16:14:12;0.03;;;0.00;;
43184;SDS011;28803;52.308;19.096;2022-09-02T16:16:47;0.28;;;0.00;;
43184;SDS011;28803;52.308;19.096;2022-09-02T16:19:18;0.28;;;0.03;;
43184;SDS011;28803;52.308;19.096;2022-09-02T16:21:50;0.20;;;0.05;;
43184;SDS011;28803;52.308;19.096;2022-09-02T16:24:19;0.00;;;0.00;;
43184;SDS011;28803;52.308;19.096;2022-09-02T16:26:49;0.15;;;0.15;;
43184;SDS011;28803;52.308;19.096;2022-09-02T16:29:17;0.60;;;0.10;;
43184;SDS011;28803;52.308;19.096;2022-09-02T16:31:46;1.08;;;0.35;;
43184;SDS011;28803;52.308;19.096;2022-09-02T16:34:35;0.40;;;0.13;;
43184;SDS011;28803;52.308;19.096;2022-09-02T16:37:06;0.65;;;0.10;;
43184;SDS011;28803;52.308;19.096;2022-09-02T16:39:34;0.40;;;0.10;;
43184;SDS011;28803;52.308;19.096;2022-09-02T16:42:02;0.38;;;0.10;;
43184;SDS011;28803;52.308;19.096;2022-09-02T16:44:31;0.68;;;0.10;;
43184;SDS011;28803;52.308;19.096;2022-09-02T16:46:59;0.20;;;0.00;;
43184;SDS011;28803;52.308;19.096;2022-09-02T16:49:27;0.35;;;0.10;;
43184;SDS011;28803;52.308;19.096;2022-09-02T16:51:57;0.55;;;0.00;;
43184;SDS011;28803;52.308;19.096;2022-09-02T16:54:25;0.35;;;0.20;;
43184;SDS011;28803;52.308;19.096;2022-09-02T16:57:06;0.25;;;0.05;;
43184;SDS011;28803;52.308;19.096;2022-09-02T16:59:34;0.45;;;0.10;;
43184;SDS011;28803;52.308;19.096;2022-09-02T17:02:02;0.88;;;0.20;;
43184;SDS011;28803;52.308;19.096;2022-09-02T17:04:31;0.10;;;0.03;;
43184;SDS011;28803;52.308;19.096;2022-09-02T17:06:58;0.73;;;0.20;;
43184;SDS011;28803;52.308;19.096;2022-09-02T17:09:26;0.65;;;0.10;;
43184;SDS011;28803;52.308;19.096;2022-09-02T17:11:54;0.98;;;0.20;;
43184;SDS011;28803;52.308;19.096;2022-09-02T17:14:23;0.50;;;0.13;;